This is the latest recevied weather packets stored in our database for station/object K7SPS-10. If no packets are shown the sender has not sent any weather packets the latest 10 day(s).
| Time | Temp. | Humidity | Pressure | Rain* | Wind** | Luminosity | Snow |
|---|---|---|---|---|---|---|---|
| 1778349665 | 20° C | 36% | 1021.6 hPa | 0 mm | - | 734 W/m² | - |
| 1778349360 | 19.44° C | 37% | 1021.6 hPa | 0 mm | - | 727 W/m² | - |
| 1778349058 | 19.44° C | 37% | 1021.5 hPa | 0 mm | - | 719 W/m² | - |
| 1778348754 | 18.89° C | 39% | 1021.7 hPa | 0 mm | - | 710 W/m² | - |
| 1778348449 | 18.89° C | 38% | 1021.4 hPa | 0 mm | - | 701 W/m² | - |
| 1778348144 | 18.89° C | 37% | 1021.7 hPa | 0 mm | - | 693 W/m² | - |
| 1778347840 | 18.33° C | 42% | 1021.5 hPa | 0 mm | - | 682 W/m² | - |
| 1778347538 | 18.33° C | 41% | 1021.8 hPa | 0 mm | - | 671 W/m² | - |
| 1778347233 | 18.89° C | 41% | 1021.8 hPa | 0 mm | - | 661 W/m² | - |
| 1778346929 | 18.33° C | 43% | 1021.8 hPa | 0 mm | - | 650 W/m² | - |
| 1778346626 | 18.89° C | 40% | 1021.8 hPa | 0 mm | - | 634 W/m² | - |
| 1778346321 | 17.78° C | 43% | 1022 hPa | 0 mm | - | 629 W/m² | - |
| 1778346018 | 18.33° C | 43% | 1021.8 hPa | 0 mm | - | 618 W/m² | - |
| 1778345716 | 17.78° C | 45% | 1021.7 hPa | 0 mm | - | 609 W/m² | - |
| 1778345412 | 17.22° C | 45% | 1021.7 hPa | 0 mm | - | 596 W/m² | - |
| 1778345109 | 17.78° C | 47% | 1022 hPa | 0 mm | - | 584 W/m² | - |
| 1778344804 | 17.78° C | 46% | 1021.6 hPa | 0 mm | - | 572 W/m² | - |
| 1778344502 | 16.67° C | 47% | 1021.7 hPa | 0 mm | - | 562 W/m² | - |
| 1778344201 | 16.67° C | 48% | 1021.6 hPa | 0 mm | - | 550 W/m² | - |
| 1778343900 | 16.67° C | 50% | 1021.7 hPa | 0 mm | - | 539 W/m² | - |
| 1778343595 | 16.11° C | 51% | 1021.8 hPa | 0 mm | - | 525 W/m² | - |
| 1778343292 | 16.11° C | 50% | 1021.8 hPa | 0 mm | - | 514 W/m² | - |
| 1778342987 | 15.56° C | 52% | 1021.8 hPa | 0 mm | - | 499 W/m² | - |
| 1778342684 | 15.56° C | 53% | 1022.1 hPa | 0 mm | - | 484 W/m² | - |
| 1778342378 | 15.56° C | 54% | 1021.7 hPa | 0 mm | - | 471 W/m² | - |
* Rain latest hour (hover to see other rain measurements)
** Current wind speed in m/s (hover to see current wind gust speed)